sensor_id;sensor_type;location;lat;lon;timestamp;P1;durP1;ratioP1;P2;durP2;ratioP2
823;SDS011;373;49.342;8.146;2023-10-31T00:01:14;0.93;;;0.60;;
823;SDS011;373;49.342;8.146;2023-10-31T00:03:41;1.88;;;0.43;;
823;SDS011;373;49.342;8.146;2023-10-31T00:06:10;0.80;;;0.28;;
823;SDS011;373;49.342;8.146;2023-10-31T00:08:37;0.50;;;0.50;;
823;SDS011;373;49.342;8.146;2023-10-31T00:11:05;2.10;;;0.50;;
823;SDS011;373;49.342;8.146;2023-10-31T00:13:35;0.38;;;0.35;;
823;SDS011;373;49.342;8.146;2023-10-31T00:16:03;1.08;;;0.40;;
823;SDS011;373;49.342;8.146;2023-10-31T00:18:30;3.85;;;0.60;;
823;SDS011;373;49.342;8.146;2023-10-31T00:20:57;0.52;;;0.50;;
823;SDS011;373;49.342;8.146;2023-10-31T00:23:24;0.47;;;0.30;;
823;SDS011;373;49.342;8.146;2023-10-31T00:25:51;0.52;;;0.20;;
823;SDS011;373;49.342;8.146;2023-10-31T00:28:19;0.63;;;0.40;;
823;SDS011;373;49.342;8.146;2023-10-31T00:30:46;0.28;;;0.22;;
823;SDS011;373;49.342;8.146;2023-10-31T00:33:13;0.40;;;0.30;;
823;SDS011;373;49.342;8.146;2023-10-31T00:35:40;0.95;;;0.43;;
823;SDS011;373;49.342;8.146;2023-10-31T00:38:07;0.55;;;0.20;;
823;SDS011;373;49.342;8.146;2023-10-31T00:40:35;1.27;;;0.30;;
823;SDS011;373;49.342;8.146;2023-10-31T00:43:02;0.50;;;0.30;;
823;SDS011;373;49.342;8.146;2023-10-31T00:45:30;0.52;;;0.30;;
823;SDS011;373;49.342;8.146;2023-10-31T00:47:57;0.73;;;0.30;;
823;SDS011;373;49.342;8.146;2023-10-31T00:50:26;0.98;;;0.43;;
823;SDS011;373;49.342;8.146;2023-10-31T00:52:53;0.20;;;0.20;;
823;SDS011;373;49.342;8.146;2023-10-31T00:55:20;0.43;;;0.30;;
823;SDS011;373;49.342;8.146;2023-10-31T00:57:47;1.05;;;0.30;;
823;SDS011;373;49.342;8.146;2023-10-31T01:00:15;0.47;;;0.30;;
823;SDS011;373;49.342;8.146;2023-10-31T01:02:44;0.80;;;0.30;;
823;SDS011;373;49.342;8.146;2023-10-31T01:05:11;0.60;;;0.50;;
823;SDS011;373;49.342;8.146;2023-10-31T01:07:38;1.38;;;0.43;;
823;SDS011;373;49.342;8.146;2023-10-31T01:10:05;0.32;;;0.20;;
823;SDS011;373;49.342;8.146;2023-10-31T01:12:33;0.30;;;0.30;;
823;SDS011;373;49.342;8.146;2023-10-31T01:15:00;0.35;;;0.35;;
823;SDS011;373;49.342;8.146;2023-10-31T01:17:28;1.98;;;0.30;;
823;SDS011;373;49.342;8.146;2023-10-31T01:19:57;0.63;;;0.40;;
823;SDS011;373;49.342;8.146;2023-10-31T01:22:26;2.15;;;0.68;;
823;SDS011;373;49.342;8.146;2023-10-31T01:24:53;2.90;;;0.30;;
823;SDS011;373;49.342;8.146;2023-10-31T01:27:20;0.52;;;0.45;;
823;SDS011;373;49.342;8.146;2023-10-31T01:29:47;0.65;;;0.38;;
823;SDS011;373;49.342;8.146;2023-10-31T01:32:14;0.75;;;0.50;;
823;SDS011;373;49.342;8.146;2023-10-31T01:34:41;0.20;;;0.20;;
823;SDS011;373;49.342;8.146;2023-10-31T01:37:14;0.77;;;0.40;;
823;SDS011;373;49.342;8.146;2023-10-31T01:39:41;0.73;;;0.47;;
823;SDS011;373;49.342;8.146;2023-10-31T01:42:08;0.30;;;0.20;;
823;SDS011;373;49.342;8.146;2023-10-31T01:44:35;0.77;;;0.15;;
823;SDS011;373;49.342;8.146;2023-10-31T01:47:03;0.32;;;0.13;;
823;SDS011;373;49.342;8.146;2023-10-31T01:49:30;0.40;;;0.40;;
823;SDS011;373;49.342;8.146;2023-10-31T01:51:58;0.30;;;0.30;;
823;SDS011;373;49.342;8.146;2023-10-31T01:54:27;0.25;;;0.25;;
823;SDS011;373;49.342;8.146;2023-10-31T01:56:55;0.20;;;0.20;;
823;SDS011;373;49.342;8.146;2023-10-31T01:59:23;0.20;;;0.20;;
823;SDS011;373;49.342;8.146;2023-10-31T02:01:50;0.52;;;0.30;;
823;SDS011;373;49.342;8.146;2023-10-31T02:04:17;0.47;;;0.40;;
823;SDS011;373;49.342;8.146;2023-10-31T02:06:44;0.47;;;0.47;;
823;SDS011;373;49.342;8.146;2023-10-31T02:09:11;0.43;;;0.43;;
823;SDS011;373;49.342;8.146;2023-10-31T02:11:40;0.63;;;0.50;;
823;SDS011;373;49.342;8.146;2023-10-31T02:14:07;0.50;;;0.40;;
823;SDS011;373;49.342;8.146;2023-10-31T02:16:34;0.50;;;0.40;;
823;SDS011;373;49.342;8.146;2023-10-31T02:19:02;0.82;;;0.38;;
823;SDS011;373;49.342;8.146;2023-10-31T02:21:30;0.90;;;0.40;;
823;SDS011;373;49.342;8.146;2023-10-31T02:24:00;0.68;;;0.40;;
823;SDS011;373;49.342;8.146;2023-10-31T02:26:28;0.63;;;0.40;;
823;SDS011;373;49.342;8.146;2023-10-31T02:28:56;1.38;;;0.45;;
823;SDS011;373;49.342;8.146;2023-10-31T02:31:23;2.40;;;1.02;;
823;SDS011;373;49.342;8.146;2023-10-31T02:33:50;0.57;;;0.50;;
823;SDS011;373;49.342;8.146;2023-10-31T02:36:17;0.70;;;0.70;;
823;SDS011;373;49.342;8.146;2023-10-31T02:38:45;2.20;;;0.60;;
823;SDS011;373;49.342;8.146;2023-10-31T02:41:14;1.10;;;0.47;;
823;SDS011;373;49.342;8.146;2023-10-31T02:43:42;0.70;;;0.50;;
823;SDS011;373;49.342;8.146;2023-10-31T02:46:09;2.28;;;0.50;;
823;SDS011;373;49.342;8.146;2023-10-31T02:48:37;0.85;;;0.60;;
823;SDS011;373;49.342;8.146;2023-10-31T02:51:06;1.27;;;0.50;;
823;SDS011;373;49.342;8.146;2023-10-31T02:53:34;0.70;;;0.30;;
823;SDS011;373;49.342;8.146;2023-10-31T02:56:01;0.40;;;0.40;;
823;SDS011;373;49.342;8.146;2023-10-31T02:58:30;1.73;;;0.40;;
823;SDS011;373;49.342;8.146;2023-10-31T03:00:57;1.55;;;0.93;;
823;SDS011;373;49.342;8.146;2023-10-31T03:03:24;0.90;;;0.60;;
823;SDS011;373;49.342;8.146;2023-10-31T03:05:52;0.70;;;0.45;;
823;SDS011;373;49.342;8.146;2023-10-31T03:08:19;1.40;;;0.32;;
823;SDS011;373;49.342;8.146;2023-10-31T03:10:47;0.30;;;0.30;;
823;SDS011;373;49.342;8.146;2023-10-31T03:13:16;0.85;;;0.43;;
823;SDS011;373;49.342;8.146;2023-10-31T03:15:45;0.82;;;0.30;;
823;SDS011;373;49.342;8.146;2023-10-31T03:18:12;0.43;;;0.43;;
823;SDS011;373;49.342;8.146;2023-10-31T03:20:43;0.30;;;0.30;;
823;SDS011;373;49.342;8.146;2023-10-31T03:23:11;0.28;;;0.28;;
823;SDS011;373;49.342;8.146;2023-10-31T03:25:38;0.73;;;0.40;;
823;SDS011;373;49.342;8.146;2023-10-31T03:28:07;0.30;;;0.30;;
823;SDS011;373;49.342;8.146;2023-10-31T03:30:45;0.50;;;0.40;;
823;SDS011;373;49.342;8.146;2023-10-31T03:33:13;1.17;;;0.50;;
823;SDS011;373;49.342;8.146;2023-10-31T03:35:41;2.08;;;0.40;;
823;SDS011;373;49.342;8.146;2023-10-31T03:38:08;1.75;;;0.30;;
823;SDS011;373;49.342;8.146;2023-10-31T03:40:35;0.95;;;0.28;;
823;SDS011;373;49.342;8.146;2023-10-31T03:43:03;0.98;;;0.47;;
823;SDS011;373;49.342;8.146;2023-10-31T03:45:30;0.20;;;0.20;;
823;SDS011;373;49.342;8.146;2023-10-31T03:48:00;0.57;;;0.28;;
823;SDS011;373;49.342;8.146;2023-10-31T03:50:27;1.27;;;0.50;;
823;SDS011;373;49.342;8.146;2023-10-31T03:52:55;1.33;;;0.30;;
823;SDS011;373;49.342;8.146;2023-10-31T03:55:22;0.38;;;0.38;;
823;SDS011;373;49.342;8.146;2023-10-31T03:57:50;0.77;;;0.45;;
823;SDS011;373;49.342;8.146;2023-10-31T04:00:17;0.65;;;0.38;;
823;SDS011;373;49.342;8.146;2023-10-31T04:02:44;0.65;;;0.47;;
823;SDS011;373;49.342;8.146;2023-10-31T04:05:14;1.20;;;0.50;;
823;SDS011;373;49.342;8.146;2023-10-31T04:07:43;0.95;;;0.40;;
823;SDS011;373;49.342;8.146;2023-10-31T04:10:11;2.03;;;0.50;;
823;SDS011;373;49.342;8.146;2023-10-31T04:12:38;0.32;;;0.32;;
823;SDS011;373;49.342;8.146;2023-10-31T04:15:06;0.30;;;0.30;;
823;SDS011;373;49.342;8.146;2023-10-31T04:17:34;0.93;;;0.52;;
823;SDS011;373;49.342;8.146;2023-10-31T04:20:02;0.63;;;0.40;;
823;SDS011;373;49.342;8.146;2023-10-31T04:22:31;0.30;;;0.30;;
823;SDS011;373;49.342;8.146;2023-10-31T04:24:58;1.00;;;0.40;;
823;SDS011;373;49.342;8.146;2023-10-31T04:27:25;0.30;;;0.20;;
823;SDS011;373;49.342;8.146;2023-10-31T04:29:54;0.50;;;0.50;;
823;SDS011;373;49.342;8.146;2023-10-31T04:32:21;2.72;;;0.52;;
823;SDS011;373;49.342;8.146;2023-10-31T04:34:48;0.80;;;0.20;;
823;SDS011;373;49.342;8.146;2023-10-31T04:37:15;0.57;;;0.40;;
823;SDS011;373;49.342;8.146;2023-10-31T04:39:43;0.40;;;0.28;;
823;SDS011;373;49.342;8.146;2023-10-31T04:42:10;1.17;;;0.30;;
823;SDS011;373;49.342;8.146;2023-10-31T04:44:37;1.20;;;0.57;;
823;SDS011;373;49.342;8.146;2023-10-31T04:47:05;1.27;;;0.52;;
823;SDS011;373;49.342;8.146;2023-10-31T04:49:34;0.47;;;0.40;;
823;SDS011;373;49.342;8.146;2023-10-31T04:52:01;1.73;;;0.43;;
823;SDS011;373;49.342;8.146;2023-10-31T04:54:29;0.77;;;0.38;;
823;SDS011;373;49.342;8.146;2023-10-31T04:56:57;2.65;;;0.70;;
823;SDS011;373;49.342;8.146;2023-10-31T04:59:24;1.48;;;0.30;;
823;SDS011;373;49.342;8.146;2023-10-31T05:01:51;1.08;;;0.50;;
823;SDS011;373;49.342;8.146;2023-10-31T05:04:37;0.57;;;0.57;;
823;SDS011;373;49.342;8.146;2023-10-31T05:07:04;0.30;;;0.30;;
823;SDS011;373;49.342;8.146;2023-10-31T05:09:31;0.98;;;0.57;;
823;SDS011;373;49.342;8.146;2023-10-31T05:12:00;1.10;;;0.40;;
823;SDS011;373;49.342;8.146;2023-10-31T05:14:27;2.28;;;0.80;;
823;SDS011;373;49.342;8.146;2023-10-31T05:16:54;0.60;;;0.50;;
823;SDS011;373;49.342;8.146;2023-10-31T05:19:22;2.03;;;0.90;;
823;SDS011;373;49.342;8.146;2023-10-31T05:21:49;1.08;;;0.47;;
823;SDS011;373;49.342;8.146;2023-10-31T05:24:16;0.75;;;0.50;;
823;SDS011;373;49.342;8.146;2023-10-31T05:26:43;0.55;;;0.35;;
823;SDS011;373;49.342;8.146;2023-10-31T05:29:12;1.13;;;0.60;;
823;SDS011;373;49.342;8.146;2023-10-31T05:31:39;1.77;;;0.40;;
823;SDS011;373;49.342;8.146;2023-10-31T05:34:06;1.02;;;0.50;;
823;SDS011;373;49.342;8.146;2023-10-31T05:36:34;2.05;;;1.00;;
823;SDS011;373;49.342;8.146;2023-10-31T05:39:01;0.68;;;0.30;;
823;SDS011;373;49.342;8.146;2023-10-31T05:41:28;0.50;;;0.50;;
823;SDS011;373;49.342;8.146;2023-10-31T05:43:55;0.90;;;0.60;;
823;SDS011;373;49.342;8.146;2023-10-31T05:46:23;1.48;;;1.33;;
823;SDS011;373;49.342;8.146;2023-10-31T05:48:52;3.92;;;3.53;;
823;SDS011;373;49.342;8.146;2023-10-31T05:51:19;7.65;;;6.90;;
823;SDS011;373;49.342;8.146;2023-10-31T05:53:47;3.83;;;3.45;;
823;SDS011;373;49.342;8.146;2023-10-31T05:56:15;2.72;;;2.53;;
823;SDS011;373;49.342;8.146;2023-10-31T05:58:43;3.05;;;1.85;;
823;SDS011;373;49.342;8.146;2023-10-31T06:01:10;1.52;;;0.70;;
823;SDS011;373;49.342;8.146;2023-10-31T06:03:38;2.15;;;1.00;;
823;SDS011;373;49.342;8.146;2023-10-31T06:06:09;2.50;;;0.90;;
823;SDS011;373;49.342;8.146;2023-10-31T06:08:37;0.88;;;0.88;;
823;SDS011;373;49.342;8.146;2023-10-31T06:11:04;1.45;;;1.17;;
823;SDS011;373;49.342;8.146;2023-10-31T06:13:31;2.28;;;1.95;;
823;SDS011;373;49.342;8.146;2023-10-31T06:15:59;2.55;;;1.80;;
823;SDS011;373;49.342;8.146;2023-10-31T06:18:27;3.17;;;2.03;;
823;SDS011;373;49.342;8.146;2023-10-31T06:20:55;1.42;;;1.33;;
823;SDS011;373;49.342;8.146;2023-10-31T06:23:23;1.05;;;1.05;;
823;SDS011;373;49.342;8.146;2023-10-31T06:25:50;2.15;;;1.23;;
823;SDS011;373;49.342;8.146;2023-10-31T06:28:17;1.92;;;1.60;;
823;SDS011;373;49.342;8.146;2023-10-31T06:30:44;2.30;;;1.30;;
823;SDS011;373;49.342;8.146;2023-10-31T06:33:13;1.60;;;1.20;;
823;SDS011;373;49.342;8.146;2023-10-31T06:35:41;4.18;;;1.60;;
823;SDS011;373;49.342;8.146;2023-10-31T06:38:09;1.83;;;1.10;;
823;SDS011;373;49.342;8.146;2023-10-31T06:40:36;3.15;;;1.17;;
823;SDS011;373;49.342;8.146;2023-10-31T06:43:03;0.90;;;0.68;;
823;SDS011;373;49.342;8.146;2023-10-31T06:45:30;1.15;;;0.80;;
823;SDS011;373;49.342;8.146;2023-10-31T06:47:57;0.80;;;0.60;;
823;SDS011;373;49.342;8.146;2023-10-31T06:50:24;0.63;;;0.50;;
823;SDS011;373;49.342;8.146;2023-10-31T06:52:52;2.00;;;0.40;;
823;SDS011;373;49.342;8.146;2023-10-31T06:55:20;0.70;;;0.57;;
823;SDS011;373;49.342;8.146;2023-10-31T06:57:47;1.40;;;0.73;;
823;SDS011;373;49.342;8.146;2023-10-31T07:00:15;0.57;;;0.57;;
823;SDS011;373;49.342;8.146;2023-10-31T07:02:42;0.95;;;0.50;;
823;SDS011;373;49.342;8.146;2023-10-31T07:05:09;0.82;;;0.52;;
823;SDS011;373;49.342;8.146;2023-10-31T07:07:36;1.75;;;0.75;;
823;SDS011;373;49.342;8.146;2023-10-31T07:10:04;1.33;;;0.60;;
823;SDS011;373;49.342;8.146;2023-10-31T07:12:33;1.77;;;0.57;;
823;SDS011;373;49.342;8.146;2023-10-31T07:15:00;2.30;;;0.80;;
823;SDS011;373;49.342;8.146;2023-10-31T07:17:27;1.65;;;0.60;;
823;SDS011;373;49.342;8.146;2023-10-31T07:19:54;0.75;;;0.43;;
823;SDS011;373;49.342;8.146;2023-10-31T07:22:22;1.52;;;0.40;;
823;SDS011;373;49.342;8.146;2023-10-31T07:24:50;0.85;;;0.45;;
823;SDS011;373;49.342;8.146;2023-10-31T07:27:17;0.93;;;0.57;;
823;SDS011;373;49.342;8.146;2023-10-31T07:29:45;1.95;;;0.88;;
823;SDS011;373;49.342;8.146;2023-10-31T07:32:12;0.75;;;0.57;;
823;SDS011;373;49.342;8.146;2023-10-31T07:34:40;2.70;;;0.73;;
823;SDS011;373;49.342;8.146;2023-10-31T07:37:07;3.28;;;0.60;;
823;SDS011;373;49.342;8.146;2023-10-31T07:39:34;0.95;;;0.40;;
823;SDS011;373;49.342;8.146;2023-10-31T07:42:02;5.38;;;0.93;;
823;SDS011;373;49.342;8.146;2023-10-31T07:44:29;0.80;;;0.60;;
823;SDS011;373;49.342;8.146;2023-10-31T07:46:58;1.02;;;0.52;;
823;SDS011;373;49.342;8.146;2023-10-31T07:49:25;1.38;;;0.68;;
823;SDS011;373;49.342;8.146;2023-10-31T07:51:52;3.15;;;0.70;;
823;SDS011;373;49.342;8.146;2023-10-31T07:54:19;0.93;;;0.57;;
823;SDS011;373;49.342;8.146;2023-10-31T07:56:46;3.95;;;0.70;;
823;SDS011;373;49.342;8.146;2023-10-31T07:59:13;1.83;;;0.50;;
823;SDS011;373;49.342;8.146;2023-10-31T08:01:40;1.00;;;0.70;;
823;SDS011;373;49.342;8.146;2023-10-31T08:04:09;1.38;;;0.55;;
823;SDS011;373;49.342;8.146;2023-10-31T08:06:36;0.70;;;0.63;;
823;SDS011;373;49.342;8.146;2023-10-31T08:09:03;2.58;;;0.60;;
823;SDS011;373;49.342;8.146;2023-10-31T08:11:30;3.58;;;0.70;;
823;SDS011;373;49.342;8.146;2023-10-31T08:14:00;1.42;;;0.82;;
823;SDS011;373;49.342;8.146;2023-10-31T08:16:27;1.38;;;0.68;;
823;SDS011;373;49.342;8.146;2023-10-31T08:18:54;4.57;;;0.93;;
823;SDS011;373;49.342;8.146;2023-10-31T08:21:22;1.70;;;0.77;;
823;SDS011;373;49.342;8.146;2023-10-31T08:23:49;3.20;;;1.10;;
823;SDS011;373;49.342;8.146;2023-10-31T08:26:16;2.90;;;0.82;;
823;SDS011;373;49.342;8.146;2023-10-31T08:28:43;3.88;;;0.82;;
823;SDS011;373;49.342;8.146;2023-10-31T08:31:10;1.83;;;1.00;;
823;SDS011;373;49.342;8.146;2023-10-31T08:33:38;4.50;;;1.00;;
823;SDS011;373;49.342;8.146;2023-10-31T08:36:05;2.72;;;0.70;;
823;SDS011;373;49.342;8.146;2023-10-31T08:38:34;2.85;;;1.02;;
823;SDS011;373;49.342;8.146;2023-10-31T08:41:01;2.63;;;0.85;;
823;SDS011;373;49.342;8.146;2023-10-31T08:43:29;1.98;;;0.80;;
823;SDS011;373;49.342;8.146;2023-10-31T08:45:56;2.15;;;0.90;;
823;SDS011;373;49.342;8.146;2023-10-31T08:48:23;1.45;;;0.63;;
823;SDS011;373;49.342;8.146;2023-10-31T08:50:50;8.82;;;0.95;;
823;SDS011;373;49.342;8.146;2023-10-31T08:53:17;1.77;;;0.80;;
823;SDS011;373;49.342;8.146;2023-10-31T08:55:46;2.97;;;1.00;;
823;SDS011;373;49.342;8.146;2023-10-31T08:58:13;2.03;;;0.93;;
823;SDS011;373;49.342;8.146;2023-10-31T09:00:43;4.30;;;1.00;;
823;SDS011;373;49.342;8.146;2023-10-31T09:03:10;3.45;;;1.23;;
823;SDS011;373;49.342;8.146;2023-10-31T09:05:37;2.10;;;0.80;;
823;SDS011;373;49.342;8.146;2023-10-31T09:08:04;3.08;;;1.08;;
823;SDS011;373;49.342;8.146;2023-10-31T09:10:32;4.00;;;0.70;;
823;SDS011;373;49.342;8.146;2023-10-31T09:13:01;2.58;;;0.80;;
823;SDS011;373;49.342;8.146;2023-10-31T09:15:28;2.08;;;0.60;;
823;SDS011;373;49.342;8.146;2023-10-31T09:17:55;2.10;;;1.00;;
823;SDS011;373;49.342;8.146;2023-10-31T09:20:22;1.63;;;0.93;;
823;SDS011;373;49.342;8.146;2023-10-31T09:22:49;4.60;;;1.23;;
823;SDS011;373;49.342;8.146;2023-10-31T09:25:16;1.40;;;0.80;;
823;SDS011;373;49.342;8.146;2023-10-31T09:27:43;2.55;;;0.60;;
823;SDS011;373;49.342;8.146;2023-10-31T09:30:12;4.50;;;1.33;;
823;SDS011;373;49.342;8.146;2023-10-31T09:32:39;2.28;;;0.70;;
823;SDS011;373;49.342;8.146;2023-10-31T09:35:06;4.00;;;1.30;;
823;SDS011;373;49.342;8.146;2023-10-31T09:37:34;2.65;;;0.80;;
823;SDS011;373;49.342;8.146;2023-10-31T09:40:01;3.42;;;0.80;;
823;SDS011;373;49.342;8.146;2023-10-31T09:42:28;2.40;;;0.95;;
823;SDS011;373;49.342;8.146;2023-10-31T09:44:56;1.75;;;1.00;;
823;SDS011;373;49.342;8.146;2023-10-31T09:47:24;4.85;;;1.15;;
823;SDS011;373;49.342;8.146;2023-10-31T09:49:51;1.13;;;0.63;;
823;SDS011;373;49.342;8.146;2023-10-31T09:52:19;1.40;;;0.70;;
823;SDS011;373;49.342;8.146;2023-10-31T09:54:47;2.05;;;1.17;;
823;SDS011;373;49.342;8.146;2023-10-31T09:57:16;4.72;;;1.20;;
823;SDS011;373;49.342;8.146;2023-10-31T09:59:43;1.20;;;0.73;;
823;SDS011;373;49.342;8.146;2023-10-31T10:02:11;3.63;;;0.82;;
823;SDS011;373;49.342;8.146;2023-10-31T10:04:39;2.08;;;0.65;;
823;SDS011;373;49.342;8.146;2023-10-31T10:07:06;2.15;;;0.75;;
823;SDS011;373;49.342;8.146;2023-10-31T10:09:33;3.25;;;1.08;;
823;SDS011;373;49.342;8.146;2023-10-31T10:12:01;3.22;;;1.20;;
823;SDS011;373;49.342;8.146;2023-10-31T10:14:28;1.88;;;0.80;;
823;SDS011;373;49.342;8.146;2023-10-31T10:16:56;2.45;;;0.75;;
823;SDS011;373;49.342;8.146;2023-10-31T10:19:24;3.53;;;0.95;;
823;SDS011;373;49.342;8.146;2023-10-31T10:21:53;2.92;;;0.98;;
823;SDS011;373;49.342;8.146;2023-10-31T10:24:21;1.50;;;1.02;;
823;SDS011;373;49.342;8.146;2023-10-31T10:26:50;2.88;;;0.90;;
823;SDS011;373;49.342;8.146;2023-10-31T10:29:17;2.83;;;0.95;;
823;SDS011;373;49.342;8.146;2023-10-31T10:31:44;3.05;;;0.95;;
823;SDS011;373;49.342;8.146;2023-10-31T10:34:13;2.70;;;0.85;;
823;SDS011;373;49.342;8.146;2023-10-31T10:36:41;1.05;;;0.43;;
823;SDS011;373;49.342;8.146;2023-10-31T10:39:14;1.85;;;0.70;;
823;SDS011;373;49.342;8.146;2023-10-31T10:41:45;1.95;;;0.75;;
823;SDS011;373;49.342;8.146;2023-10-31T10:44:17;3.90;;;0.88;;
823;SDS011;373;49.342;8.146;2023-10-31T10:46:45;2.90;;;1.08;;
823;SDS011;373;49.342;8.146;2023-10-31T10:49:20;3.13;;;1.05;;
823;SDS011;373;49.342;8.146;2023-10-31T10:51:52;1.23;;;0.70;;
823;SDS011;373;49.342;8.146;2023-10-31T10:54:31;2.40;;;0.93;;
823;SDS011;373;49.342;8.146;2023-10-31T10:57:03;1.52;;;0.73;;
823;SDS011;373;49.342;8.146;2023-10-31T10:59:38;2.42;;;0.80;;
823;SDS011;373;49.342;8.146;2023-10-31T11:02:08;3.85;;;1.13;;
823;SDS011;373;49.342;8.146;2023-10-31T11:04:37;1.80;;;0.80;;
823;SDS011;373;49.342;8.146;2023-10-31T11:07:05;1.27;;;0.55;;
823;SDS011;373;49.342;8.146;2023-10-31T11:09:34;2.65;;;0.80;;
823;SDS011;373;49.342;8.146;2023-10-31T11:12:02;4.80;;;1.00;;
823;SDS011;373;49.342;8.146;2023-10-31T11:14:30;1.10;;;0.60;;
823;SDS011;373;49.342;8.146;2023-10-31T11:16:59;3.03;;;0.82;;
823;SDS011;373;49.342;8.146;2023-10-31T11:19:29;2.55;;;0.60;;
823;SDS011;373;49.342;8.146;2023-10-31T11:21:58;2.35;;;0.50;;
823;SDS011;373;49.342;8.146;2023-10-31T11:24:26;2.10;;;0.52;;
823;SDS011;373;49.342;8.146;2023-10-31T11:26:59;2.00;;;0.60;;
823;SDS011;373;49.342;8.146;2023-10-31T11:29:28;2.53;;;0.70;;
823;SDS011;373;49.342;8.146;2023-10-31T11:31:57;1.63;;;0.85;;
823;SDS011;373;49.342;8.146;2023-10-31T11:34:26;1.40;;;0.80;;
823;SDS011;373;49.342;8.146;2023-10-31T11:36:53;0.82;;;0.50;;
823;SDS011;373;49.342;8.146;2023-10-31T11:39:38;1.83;;;0.65;;
823;SDS011;373;49.342;8.146;2023-10-31T11:42:16;0.47;;;0.35;;
823;SDS011;373;49.342;8.146;2023-10-31T11:44:54;2.05;;;0.47;;
823;SDS011;373;49.342;8.146;2023-10-31T11:47:22;1.05;;;0.73;;
823;SDS011;373;49.342;8.146;2023-10-31T11:49:49;1.02;;;0.50;;
823;SDS011;373;49.342;8.146;2023-10-31T11:52:17;1.25;;;0.43;;
823;SDS011;373;49.342;8.146;2023-10-31T11:54:44;0.80;;;0.60;;
823;SDS011;373;49.342;8.146;2023-10-31T11:57:12;2.40;;;0.75;;
823;SDS011;373;49.342;8.146;2023-10-31T11:59:53;0.50;;;0.40;;
823;SDS011;373;49.342;8.146;2023-10-31T12:02:20;1.42;;;0.60;;
823;SDS011;373;49.342;8.146;2023-10-31T12:04:47;1.65;;;0.52;;
823;SDS011;373;49.342;8.146;2023-10-31T12:07:14;4.20;;;0.95;;
823;SDS011;373;49.342;8.146;2023-10-31T12:09:47;1.63;;;0.75;;
823;SDS011;373;49.342;8.146;2023-10-31T12:12:16;1.83;;;0.50;;
823;SDS011;373;49.342;8.146;2023-10-31T12:14:43;2.65;;;0.90;;
823;SDS011;373;49.342;8.146;2023-10-31T12:17:10;0.68;;;0.40;;
823;SDS011;373;49.342;8.146;2023-10-31T12:19:37;2.63;;;0.80;;
823;SDS011;373;49.342;8.146;2023-10-31T12:22:11;1.48;;;0.60;;
823;SDS011;373;49.342;8.146;2023-10-31T12:24:39;0.52;;;0.47;;
823;SDS011;373;49.342;8.146;2023-10-31T12:27:06;1.25;;;0.30;;
823;SDS011;373;49.342;8.146;2023-10-31T12:29:35;1.73;;;0.70;;
823;SDS011;373;49.342;8.146;2023-10-31T12:32:02;0.52;;;0.50;;
823;SDS011;373;49.342;8.146;2023-10-31T12:34:29;1.55;;;0.65;;
823;SDS011;373;49.342;8.146;2023-10-31T12:36:59;3.25;;;0.75;;
823;SDS011;373;49.342;8.146;2023-10-31T12:39:28;1.50;;;0.50;;
823;SDS011;373;49.342;8.146;2023-10-31T12:41:56;2.85;;;0.80;;
823;SDS011;373;49.342;8.146;2023-10-31T12:44:24;1.20;;;0.57;;
823;SDS011;373;49.342;8.146;2023-10-31T12:46:54;1.00;;;0.60;;
823;SDS011;373;49.342;8.146;2023-10-31T12:49:21;1.65;;;0.52;;
823;SDS011;373;49.342;8.146;2023-10-31T12:51:55;0.47;;;0.40;;
823;SDS011;373;49.342;8.146;2023-10-31T12:54:28;1.05;;;0.75;;
823;SDS011;373;49.342;8.146;2023-10-31T12:56:58;2.25;;;0.82;;
823;SDS011;373;49.342;8.146;2023-10-31T12:59:26;2.65;;;0.77;;
823;SDS011;373;49.342;8.146;2023-10-31T13:01:54;2.25;;;0.40;;
823;SDS011;373;49.342;8.146;2023-10-31T13:04:25;1.42;;;0.70;;
823;SDS011;373;49.342;8.146;2023-10-31T13:06:59;1.20;;;0.77;;
823;SDS011;373;49.342;8.146;2023-10-31T13:09:29;1.10;;;0.52;;
823;SDS011;373;49.342;8.146;2023-10-31T13:12:00;1.55;;;0.73;;
823;SDS011;373;49.342;8.146;2023-10-31T13:14:28;1.48;;;0.60;;
823;SDS011;373;49.342;8.146;2023-10-31T13:16:56;4.35;;;0.70;;
823;SDS011;373;49.342;8.146;2023-10-31T13:19:24;3.05;;;0.60;;
823;SDS011;373;49.342;8.146;2023-10-31T13:21:51;1.60;;;0.57;;
823;SDS011;373;49.342;8.146;2023-10-31T13:24:18;1.52;;;0.82;;
823;SDS011;373;49.342;8.146;2023-10-31T13:26:45;0.80;;;0.60;;
823;SDS011;373;49.342;8.146;2023-10-31T13:29:16;1.90;;;0.68;;
823;SDS011;373;49.342;8.146;2023-10-31T13:31:43;0.98;;;0.65;;
823;SDS011;373;49.342;8.146;2023-10-31T13:34:12;2.55;;;0.85;;
823;SDS011;373;49.342;8.146;2023-10-31T13:36:39;1.75;;;0.90;;
823;SDS011;373;49.342;8.146;2023-10-31T13:39:06;1.42;;;0.60;;
823;SDS011;373;49.342;8.146;2023-10-31T13:41:34;1.08;;;0.63;;
823;SDS011;373;49.342;8.146;2023-10-31T13:44:01;1.55;;;0.70;;
823;SDS011;373;49.342;8.146;2023-10-31T13:46:28;3.80;;;0.75;;
823;SDS011;373;49.342;8.146;2023-10-31T13:48:55;2.45;;;0.65;;
823;SDS011;373;49.342;8.146;2023-10-31T13:51:24;1.38;;;1.00;;
823;SDS011;373;49.342;8.146;2023-10-31T13:53:51;0.82;;;0.60;;
823;SDS011;373;49.342;8.146;2023-10-31T13:56:18;1.58;;;0.60;;
823;SDS011;373;49.342;8.146;2023-10-31T13:58:45;4.95;;;0.98;;
823;SDS011;373;49.342;8.146;2023-10-31T14:01:12;2.78;;;0.70;;
823;SDS011;373;49.342;8.146;2023-10-31T14:03:39;1.75;;;0.70;;
823;SDS011;373;49.342;8.146;2023-10-31T14:06:06;0.68;;;0.50;;
823;SDS011;373;49.342;8.146;2023-10-31T14:08:35;2.00;;;0.77;;
823;SDS011;373;49.342;8.146;2023-10-31T14:11:05;1.85;;;0.57;;
823;SDS011;373;49.342;8.146;2023-10-31T14:13:33;2.13;;;0.90;;
823;SDS011;373;49.342;8.146;2023-10-31T14:16:02;1.98;;;1.15;;
823;SDS011;373;49.342;8.146;2023-10-31T14:18:29;2.90;;;0.98;;
823;SDS011;373;49.342;8.146;2023-10-31T14:20:56;1.45;;;1.02;;
823;SDS011;373;49.342;8.146;2023-10-31T14:23:24;1.75;;;1.02;;
823;SDS011;373;49.342;8.146;2023-10-31T14:25:52;2.63;;;0.80;;
823;SDS011;373;49.342;8.146;2023-10-31T14:28:19;1.50;;;0.80;;
823;SDS011;373;49.342;8.146;2023-10-31T14:30:46;1.17;;;0.90;;
823;SDS011;373;49.342;8.146;2023-10-31T14:33:13;2.00;;;0.95;;
823;SDS011;373;49.342;8.146;2023-10-31T14:35:41;1.80;;;0.90;;
823;SDS011;373;49.342;8.146;2023-10-31T14:38:08;3.38;;;0.90;;
823;SDS011;373;49.342;8.146;2023-10-31T14:40:35;1.17;;;0.82;;
823;SDS011;373;49.342;8.146;2023-10-31T14:43:04;2.05;;;1.25;;
823;SDS011;373;49.342;8.146;2023-10-31T14:45:31;2.97;;;1.20;;
823;SDS011;373;49.342;8.146;2023-10-31T14:47:58;1.60;;;0.90;;
823;SDS011;373;49.342;8.146;2023-10-31T14:50:25;1.25;;;0.68;;
823;SDS011;373;49.342;8.146;2023-10-31T14:52:52;0.85;;;0.85;;
823;SDS011;373;49.342;8.146;2023-10-31T14:55:20;2.88;;;0.88;;
823;SDS011;373;49.342;8.146;2023-10-31T14:57:47;0.90;;;0.60;;
823;SDS011;373;49.342;8.146;2023-10-31T15:00:16;1.52;;;0.82;;
823;SDS011;373;49.342;8.146;2023-10-31T15:02:43;1.17;;;0.80;;
823;SDS011;373;49.342;8.146;2023-10-31T15:05:10;2.47;;;0.65;;
823;SDS011;373;49.342;8.146;2023-10-31T15:07:37;1.42;;;0.80;;
823;SDS011;373;49.342;8.146;2023-10-31T15:10:06;2.55;;;1.30;;
823;SDS011;373;49.342;8.146;2023-10-31T15:12:33;1.20;;;0.70;;
823;SDS011;373;49.342;8.146;2023-10-31T15:15:00;2.80;;;1.10;;
823;SDS011;373;49.342;8.146;2023-10-31T15:17:29;3.78;;;0.77;;
823;SDS011;373;49.342;8.146;2023-10-31T15:19:56;1.23;;;0.98;;
823;SDS011;373;49.342;8.146;2023-10-31T15:22:23;1.52;;;0.90;;
823;SDS011;373;49.342;8.146;2023-10-31T15:24:50;2.75;;;1.70;;
823;SDS011;373;49.342;8.146;2023-10-31T15:27:17;1.80;;;1.23;;
823;SDS011;373;49.342;8.146;2023-10-31T15:29:44;1.60;;;1.20;;
823;SDS011;373;49.342;8.146;2023-10-31T15:32:11;2.17;;;1.20;;
823;SDS011;373;49.342;8.146;2023-10-31T15:34:40;0.93;;;0.50;;
823;SDS011;373;49.342;8.146;2023-10-31T15:37:08;1.35;;;0.85;;
823;SDS011;373;49.342;8.146;2023-10-31T15:39:36;0.85;;;0.52;;
823;SDS011;373;49.342;8.146;2023-10-31T15:42:05;1.95;;;0.80;;
823;SDS011;373;49.342;8.146;2023-10-31T15:44:33;0.63;;;0.32;;
823;SDS011;373;49.342;8.146;2023-10-31T15:47:02;1.88;;;0.90;;
823;SDS011;373;49.342;8.146;2023-10-31T15:49:32;1.70;;;0.65;;